Terminal Aerodrome Forecast
Issued by NWS

Home | Current Version | Previous Version | Graphics & Text | Print | Product List | Glossary On
Versions: 1 2 3 4 5 6 7 8 9 10 11 12 13 14 15
344
FTUS43 KBIS 260524
TAFDIK
TAF
KDIK 260524Z 2606/2706 VRB03KT P6SM VCSH OVC080
     FM261200 27006KT P6SM OVC090
     FM262100 34008KT P6SM SCT120
     FM270500 16004KT P6SM FEW140=

USA.gov is the U.S. government's official web portal to all federal, state and local government web resources and services.